sensor_id;sensor_type;location;lat;lon;timestamp;P1;durP1;ratioP1;P2;durP2;ratioP2
47605;SDS011;55448;51.330;4.946;2022-08-06T00:01:35;5.93;;;1.90;;
47605;SDS011;55448;51.330;4.946;2022-08-06T00:04:00;7.28;;;2.00;;
47605;SDS011;55448;51.330;4.946;2022-08-06T00:06:26;7.03;;;2.00;;
47605;SDS011;55448;51.330;4.946;2022-08-06T00:08:52;5.70;;;1.80;;
47605;SDS011;55448;51.330;4.946;2022-08-06T00:11:18;8.00;;;2.22;;
47605;SDS011;55448;51.330;4.946;2022-08-06T00:13:43;9.85;;;2.45;;
47605;SDS011;55448;51.330;4.946;2022-08-06T00:16:09;5.60;;;2.08;;
47605;SDS011;55448;51.330;4.946;2022-08-06T00:18:35;9.27;;;2.33;;
47605;SDS011;55448;51.330;4.946;2022-08-06T00:21:00;7.32;;;1.88;;
47605;SDS011;55448;51.330;4.946;2022-08-06T00:23:26;11.40;;;2.20;;
47605;SDS011;55448;51.330;4.946;2022-08-06T00:25:52;8.05;;;2.20;;
47605;SDS011;55448;51.330;4.946;2022-08-06T00:28:22;11.40;;;2.45;;
47605;SDS011;55448;51.330;4.946;2022-08-06T00:30:49;10.30;;;3.17;;
47605;SDS011;55448;51.330;4.946;2022-08-06T00:33:15;6.18;;;2.60;;
47605;SDS011;55448;51.330;4.946;2022-08-06T00:35:40;9.10;;;2.03;;
47605;SDS011;55448;51.330;4.946;2022-08-06T00:38:06;7.50;;;1.90;;
47605;SDS011;55448;51.330;4.946;2022-08-06T00:40:32;7.25;;;2.60;;
47605;SDS011;55448;51.330;4.946;2022-08-06T00:42:58;8.20;;;2.25;;
47605;SDS011;55448;51.330;4.946;2022-08-06T00:45:25;12.60;;;2.40;;
47605;SDS011;55448;51.330;4.946;2022-08-06T00:47:51;4.80;;;1.88;;
47605;SDS011;55448;51.330;4.946;2022-08-06T00:50:17;9.07;;;2.15;;
47605;SDS011;55448;51.330;4.946;2022-08-06T00:52:43;7.05;;;2.20;;
47605;SDS011;55448;51.330;4.946;2022-08-06T00:55:11;4.47;;;1.92;;
47605;SDS011;55448;51.330;4.946;2022-08-06T00:57:37;7.47;;;2.50;;
47605;SDS011;55448;51.330;4.946;2022-08-06T01:00:04;5.60;;;2.15;;
47605;SDS011;55448;51.330;4.946;2022-08-06T01:02:30;12.98;;;3.20;;
47605;SDS011;55448;51.330;4.946;2022-08-06T01:04:56;8.23;;;1.80;;
47605;SDS011;55448;51.330;4.946;2022-08-06T01:07:22;5.57;;;2.20;;
47605;SDS011;55448;51.330;4.946;2022-08-06T01:09:48;15.20;;;3.10;;
47605;SDS011;55448;51.330;4.946;2022-08-06T01:12:14;9.05;;;2.63;;
47605;SDS011;55448;51.330;4.946;2022-08-06T01:14:41;7.10;;;2.45;;
47605;SDS011;55448;51.330;4.946;2022-08-06T01:22:37;11.95;;;2.60;;
47605;SDS011;55448;51.330;4.946;2022-08-06T01:25:36;12.23;;;3.03;;
47605;SDS011;55448;51.330;4.946;2022-08-06T01:30:46;11.88;;;2.78;;
47605;SDS011;55448;51.330;4.946;2022-08-06T01:35:59;7.25;;;2.22;;
47605;SDS011;55448;51.330;4.946;2022-08-06T01:41:00;15.35;;;2.97;;
47605;SDS011;55448;51.330;4.946;2022-08-06T01:43:31;14.67;;;2.83;;
47605;SDS011;55448;51.330;4.946;2022-08-06T01:45:59;14.18;;;3.28;;
47605;SDS011;55448;51.330;4.946;2022-08-06T01:48:27;11.07;;;2.97;;
47605;SDS011;55448;51.330;4.946;2022-08-06T01:50:57;10.63;;;3.10;;
47605;SDS011;55448;51.330;4.946;2022-08-06T01:53:30;7.78;;;2.78;;
47605;SDS011;55448;51.330;4.946;2022-08-06T01:56:00;11.95;;;3.17;;
47605;SDS011;55448;51.330;4.946;2022-08-06T01:58:38;14.07;;;2.92;;
47605;SDS011;55448;51.330;4.946;2022-08-06T02:01:08;9.88;;;3.15;;
47605;SDS011;55448;51.330;4.946;2022-08-06T02:03:43;11.77;;;3.13;;
47605;SDS011;55448;51.330;4.946;2022-08-06T02:06:12;9.40;;;3.55;;
47605;SDS011;55448;51.330;4.946;2022-08-06T02:08:42;15.93;;;3.00;;
47605;SDS011;55448;51.330;4.946;2022-08-06T02:11:09;8.55;;;2.47;;
47605;SDS011;55448;51.330;4.946;2022-08-06T02:13:36;11.20;;;3.00;;
47605;SDS011;55448;51.330;4.946;2022-08-06T02:16:04;13.63;;;3.50;;
47605;SDS011;55448;51.330;4.946;2022-08-06T02:18:35;18.25;;;3.38;;
47605;SDS011;55448;51.330;4.946;2022-08-06T02:21:10;8.13;;;2.65;;
47605;SDS011;55448;51.330;4.946;2022-08-06T02:23:40;10.32;;;2.75;;
47605;SDS011;55448;51.330;4.946;2022-08-06T02:26:08;13.57;;;4.22;;
47605;SDS011;55448;51.330;4.946;2022-08-06T02:28:35;11.55;;;2.90;;
47605;SDS011;55448;51.330;4.946;2022-08-06T02:31:03;9.48;;;2.40;;
47605;SDS011;55448;51.330;4.946;2022-08-06T02:33:29;12.48;;;3.28;;
47605;SDS011;55448;51.330;4.946;2022-08-06T02:36:02;18.98;;;3.03;;
47605;SDS011;55448;51.330;4.946;2022-08-06T02:38:36;8.40;;;2.60;;
47605;SDS011;55448;51.330;4.946;2022-08-06T02:43:59;10.60;;;3.25;;
47605;SDS011;55448;51.330;4.946;2022-08-06T02:46:36;8.57;;;2.65;;
47605;SDS011;55448;51.330;4.946;2022-08-06T02:49:23;13.82;;;3.15;;
47605;SDS011;55448;51.330;4.946;2022-08-06T02:51:55;5.70;;;2.50;;
47605;SDS011;55448;51.330;4.946;2022-08-06T02:54:32;11.65;;;2.80;;
47605;SDS011;55448;51.330;4.946;2022-08-06T02:57:06;9.02;;;2.38;;
47605;SDS011;55448;51.330;4.946;2022-08-06T02:59:35;6.45;;;2.35;;
47605;SDS011;55448;51.330;4.946;2022-08-06T03:02:09;9.10;;;2.83;;
47605;SDS011;55448;51.330;4.946;2022-08-06T03:04:36;8.15;;;2.83;;
47605;SDS011;55448;51.330;4.946;2022-08-06T03:07:07;8.05;;;2.70;;
47605;SDS011;55448;51.330;4.946;2022-08-06T03:09:35;4.85;;;3.20;;
47605;SDS011;55448;51.330;4.946;2022-08-06T03:12:02;10.27;;;2.70;;
47605;SDS011;55448;51.330;4.946;2022-08-06T03:14:29;7.28;;;2.63;;
47605;SDS011;55448;51.330;4.946;2022-08-06T03:16:57;10.38;;;2.75;;
47605;SDS011;55448;51.330;4.946;2022-08-06T03:19:24;7.45;;;2.65;;
47605;SDS011;55448;51.330;4.946;2022-08-06T03:21:51;5.53;;;2.65;;
47605;SDS011;55448;51.330;4.946;2022-08-06T03:24:18;9.75;;;3.20;;
47605;SDS011;55448;51.330;4.946;2022-08-06T03:26:45;10.65;;;2.90;;
47605;SDS011;55448;51.330;4.946;2022-08-06T03:29:11;6.30;;;2.80;;
47605;SDS011;55448;51.330;4.946;2022-08-06T03:31:38;10.35;;;3.38;;
47605;SDS011;55448;51.330;4.946;2022-08-06T03:34:04;10.40;;;2.70;;
47605;SDS011;55448;51.330;4.946;2022-08-06T03:36:31;8.63;;;3.05;;
47605;SDS011;55448;51.330;4.946;2022-08-06T03:39:01;10.57;;;3.35;;
47605;SDS011;55448;51.330;4.946;2022-08-06T03:41:29;8.88;;;2.80;;
47605;SDS011;55448;51.330;4.946;2022-08-06T03:43:57;13.90;;;3.25;;
47605;SDS011;55448;51.330;4.946;2022-08-06T03:46:29;12.05;;;2.92;;
47605;SDS011;55448;51.330;4.946;2022-08-06T03:49:00;4.35;;;2.75;;
47605;SDS011;55448;51.330;4.946;2022-08-06T03:51:28;8.60;;;3.17;;
47605;SDS011;55448;51.330;4.946;2022-08-06T03:53:56;11.45;;;3.22;;
47605;SDS011;55448;51.330;4.946;2022-08-06T03:56:24;6.00;;;3.10;;
47605;SDS011;55448;51.330;4.946;2022-08-06T03:58:51;11.93;;;3.20;;
47605;SDS011;55448;51.330;4.946;2022-08-06T04:01:20;15.85;;;3.50;;
47605;SDS011;55448;51.330;4.946;2022-08-06T04:03:48;15.18;;;3.47;;
47605;SDS011;55448;51.330;4.946;2022-08-06T04:06:17;7.85;;;3.28;;
47605;SDS011;55448;51.330;4.946;2022-08-06T04:08:44;16.90;;;3.58;;
47605;SDS011;55448;51.330;4.946;2022-08-06T04:11:10;8.48;;;3.30;;
47605;SDS011;55448;51.330;4.946;2022-08-06T04:13:37;14.15;;;4.05;;
47605;SDS011;55448;51.330;4.946;2022-08-06T04:16:04;8.82;;;3.53;;
47605;SDS011;55448;51.330;4.946;2022-08-06T04:18:32;14.88;;;4.13;;
47605;SDS011;55448;51.330;4.946;2022-08-06T04:21:04;13.73;;;4.40;;
47605;SDS011;55448;51.330;4.946;2022-08-06T04:23:33;12.73;;;4.82;;
47605;SDS011;55448;51.330;4.946;2022-08-06T04:26:01;15.30;;;3.42;;
47605;SDS011;55448;51.330;4.946;2022-08-06T04:28:28;9.45;;;4.05;;
47605;SDS011;55448;51.330;4.946;2022-08-06T04:30:56;13.23;;;3.90;;
47605;SDS011;55448;51.330;4.946;2022-08-06T04:33:24;9.50;;;3.83;;
47605;SDS011;55448;51.330;4.946;2022-08-06T04:35:51;14.27;;;4.32;;
47605;SDS011;55448;51.330;4.946;2022-08-06T04:38:18;17.50;;;4.43;;
47605;SDS011;55448;51.330;4.946;2022-08-06T04:40:46;13.50;;;6.00;;
47605;SDS011;55448;51.330;4.946;2022-08-06T04:43:13;14.98;;;4.88;;
47605;SDS011;55448;51.330;4.946;2022-08-06T04:45:40;9.30;;;4.32;;
47605;SDS011;55448;51.330;4.946;2022-08-06T04:48:11;16.27;;;4.45;;
47605;SDS011;55448;51.330;4.946;2022-08-06T04:50:38;12.93;;;4.60;;
47605;SDS011;55448;51.330;4.946;2022-08-06T04:53:08;11.80;;;3.78;;
47605;SDS011;55448;51.330;4.946;2022-08-06T04:55:37;12.65;;;4.28;;
47605;SDS011;55448;51.330;4.946;2022-08-06T04:58:06;10.13;;;4.03;;
47605;SDS011;55448;51.330;4.946;2022-08-06T05:00:34;7.38;;;4.00;;
47605;SDS011;55448;51.330;4.946;2022-08-06T05:03:07;12.77;;;3.53;;
47605;SDS011;55448;51.330;4.946;2022-08-06T05:05:41;7.43;;;3.03;;
47605;SDS011;55448;51.330;4.946;2022-08-06T05:08:28;10.15;;;3.65;;
47605;SDS011;55448;51.330;4.946;2022-08-06T05:11:00;10.95;;;3.08;;
47605;SDS011;55448;51.330;4.946;2022-08-06T05:13:33;18.52;;;3.22;;
47605;SDS011;55448;51.330;4.946;2022-08-06T05:16:03;12.27;;;3.28;;
47605;SDS011;55448;51.330;4.946;2022-08-06T05:18:44;10.48;;;2.47;;
47605;SDS011;55448;51.330;4.946;2022-08-06T05:21:17;10.98;;;3.10;;
47605;SDS011;55448;51.330;4.946;2022-08-06T05:23:49;14.95;;;3.13;;
47605;SDS011;55448;51.330;4.946;2022-08-06T05:26:18;10.27;;;3.30;;
47605;SDS011;55448;51.330;4.946;2022-08-06T05:28:44;10.65;;;3.17;;
47605;SDS011;55448;51.330;4.946;2022-08-06T05:31:10;9.40;;;3.08;;
47605;SDS011;55448;51.330;4.946;2022-08-06T05:33:37;12.48;;;3.30;;
47605;SDS011;55448;51.330;4.946;2022-08-06T05:36:07;9.00;;;2.83;;
47605;SDS011;55448;51.330;4.946;2022-08-06T05:38:38;12.68;;;3.13;;
47605;SDS011;55448;51.330;4.946;2022-08-06T05:41:05;10.65;;;3.15;;
47605;SDS011;55448;51.330;4.946;2022-08-06T05:43:33;10.73;;;3.10;;
47605;SDS011;55448;51.330;4.946;2022-08-06T05:46:01;14.65;;;3.67;;
47605;SDS011;55448;51.330;4.946;2022-08-06T05:48:30;18.55;;;4.78;;
47605;SDS011;55448;51.330;4.946;2022-08-06T05:50:59;10.10;;;3.38;;
47605;SDS011;55448;51.330;4.946;2022-08-06T05:53:38;14.02;;;3.10;;
47605;SDS011;55448;51.330;4.946;2022-08-06T05:56:14;10.52;;;3.70;;
47605;SDS011;55448;51.330;4.946;2022-08-06T05:58:52;6.53;;;2.97;;
47605;SDS011;55448;51.330;4.946;2022-08-06T06:01:22;11.43;;;2.75;;
47605;SDS011;55448;51.330;4.946;2022-08-06T06:03:49;9.27;;;3.20;;
47605;SDS011;55448;51.330;4.946;2022-08-06T06:06:19;7.18;;;2.53;;
47605;SDS011;55448;51.330;4.946;2022-08-06T06:08:46;13.52;;;3.67;;
47605;SDS011;55448;51.330;4.946;2022-08-06T06:11:13;10.02;;;3.28;;
47605;SDS011;55448;51.330;4.946;2022-08-06T06:13:41;10.63;;;2.90;;
47605;SDS011;55448;51.330;4.946;2022-08-06T06:16:22;12.90;;;2.67;;
47605;SDS011;55448;51.330;4.946;2022-08-06T06:21:32;8.90;;;2.90;;
47605;SDS011;55448;51.330;4.946;2022-08-06T06:24:27;7.70;;;3.33;;
47605;SDS011;55448;51.330;4.946;2022-08-06T06:27:15;12.15;;;3.28;;
47605;SDS011;55448;51.330;4.946;2022-08-06T06:32:15;12.82;;;3.75;;
47605;SDS011;55448;51.330;4.946;2022-08-06T06:48:45;13.15;;;3.30;;
47605;SDS011;55448;51.330;4.946;2022-08-06T06:54:09;14.20;;;3.20;;
47605;SDS011;55448;51.330;4.946;2022-08-06T06:56:43;5.13;;;2.30;;
47605;SDS011;55448;51.330;4.946;2022-08-06T06:59:16;13.35;;;2.42;;
47605;SDS011;55448;51.330;4.946;2022-08-06T07:01:46;5.63;;;2.22;;
47605;SDS011;55448;51.330;4.946;2022-08-06T07:04:14;14.05;;;2.67;;
47605;SDS011;55448;51.330;4.946;2022-08-06T07:06:42;10.10;;;2.90;;
47605;SDS011;55448;51.330;4.946;2022-08-06T07:09:16;8.02;;;2.08;;
47605;SDS011;55448;51.330;4.946;2022-08-06T07:14:20;11.18;;;2.45;;
47605;SDS011;55448;51.330;4.946;2022-08-06T07:16:48;6.05;;;2.13;;
47605;SDS011;55448;51.330;4.946;2022-08-06T07:19:18;6.97;;;2.00;;
47605;SDS011;55448;51.330;4.946;2022-08-06T07:21:44;10.90;;;2.22;;
47605;SDS011;55448;51.330;4.946;2022-08-06T07:24:13;8.95;;;1.80;;
47605;SDS011;55448;51.330;4.946;2022-08-06T07:26:43;11.00;;;2.28;;
47605;SDS011;55448;51.330;4.946;2022-08-06T07:29:12;7.38;;;1.70;;
47605;SDS011;55448;51.330;4.946;2022-08-06T07:31:40;7.68;;;1.85;;
47605;SDS011;55448;51.330;4.946;2022-08-06T07:34:06;4.38;;;1.33;;
47605;SDS011;55448;51.330;4.946;2022-08-06T07:36:33;7.43;;;1.75;;
47605;SDS011;55448;51.330;4.946;2022-08-06T07:39:11;2.47;;;1.40;;
47605;SDS011;55448;51.330;4.946;2022-08-06T07:41:40;5.30;;;1.50;;
47605;SDS011;55448;51.330;4.946;2022-08-06T07:44:07;4.60;;;1.23;;
47605;SDS011;55448;51.330;4.946;2022-08-06T07:46:38;6.53;;;1.25;;
47605;SDS011;55448;51.330;4.946;2022-08-06T07:49:06;7.15;;;1.40;;
47605;SDS011;55448;51.330;4.946;2022-08-06T07:51:35;5.75;;;1.70;;
47605;SDS011;55448;51.330;4.946;2022-08-06T07:54:05;4.65;;;1.38;;
47605;SDS011;55448;51.330;4.946;2022-08-06T07:56:32;6.13;;;1.35;;
47605;SDS011;55448;51.330;4.946;2022-08-06T07:59:00;2.38;;;1.20;;
47605;SDS011;55448;51.330;4.946;2022-08-06T08:01:28;5.97;;;1.40;;
47605;SDS011;55448;51.330;4.946;2022-08-06T08:03:55;8.88;;;1.50;;
47605;SDS011;55448;51.330;4.946;2022-08-06T08:06:39;4.40;;;1.50;;
47605;SDS011;55448;51.330;4.946;2022-08-06T08:09:06;3.60;;;1.50;;
47605;SDS011;55448;51.330;4.946;2022-08-06T08:11:34;5.80;;;2.03;;
47605;SDS011;55448;51.330;4.946;2022-08-06T08:14:05;7.60;;;1.05;;
47605;SDS011;55448;51.330;4.946;2022-08-06T08:16:32;5.85;;;1.05;;
47605;SDS011;55448;51.330;4.946;2022-08-06T08:18:58;8.38;;;1.50;;
47605;SDS011;55448;51.330;4.946;2022-08-06T08:21:25;5.55;;;1.38;;
47605;SDS011;55448;51.330;4.946;2022-08-06T08:23:51;4.45;;;1.08;;
47605;SDS011;55448;51.330;4.946;2022-08-06T08:26:17;3.80;;;1.30;;
47605;SDS011;55448;51.330;4.946;2022-08-06T08:28:43;4.45;;;1.40;;
47605;SDS011;55448;51.330;4.946;2022-08-06T08:31:08;3.75;;;1.10;;
47605;SDS011;55448;51.330;4.946;2022-08-06T08:33:38;6.10;;;1.70;;
47605;SDS011;55448;51.330;4.946;2022-08-06T08:36:04;3.75;;;1.35;;
47605;SDS011;55448;51.330;4.946;2022-08-06T08:38:31;6.72;;;1.17;;
47605;SDS011;55448;51.330;4.946;2022-08-06T08:41:04;3.33;;;0.98;;
47605;SDS011;55448;51.330;4.946;2022-08-06T08:43:59;5.72;;;1.40;;
47605;SDS011;55448;51.330;4.946;2022-08-06T08:46:27;6.38;;;1.35;;
47605;SDS011;55448;51.330;4.946;2022-08-06T08:48:55;4.50;;;1.42;;
47605;SDS011;55448;51.330;4.946;2022-08-06T08:51:23;8.32;;;1.52;;
47605;SDS011;55448;51.330;4.946;2022-08-06T08:53:54;5.75;;;1.10;;
47605;SDS011;55448;51.330;4.946;2022-08-06T08:56:23;4.15;;;1.50;;
47605;SDS011;55448;51.330;4.946;2022-08-06T08:58:49;4.90;;;1.40;;
47605;SDS011;55448;51.330;4.946;2022-08-06T09:01:15;3.08;;;1.15;;
47605;SDS011;55448;51.330;4.946;2022-08-06T09:03:42;2.00;;;0.98;;
47605;SDS011;55448;51.330;4.946;2022-08-06T09:06:08;6.63;;;1.20;;
47605;SDS011;55448;51.330;4.946;2022-08-06T09:08:34;2.60;;;0.70;;
47605;SDS011;55448;51.330;4.946;2022-08-06T09:11:01;4.88;;;1.23;;
47605;SDS011;55448;51.330;4.946;2022-08-06T09:13:28;2.45;;;1.17;;
47605;SDS011;55448;51.330;4.946;2022-08-06T09:15:55;3.97;;;1.20;;
47605;SDS011;55448;51.330;4.946;2022-08-06T09:18:22;3.72;;;0.95;;
47605;SDS011;55448;51.330;4.946;2022-08-06T09:20:49;2.60;;;0.73;;
47605;SDS011;55448;51.330;4.946;2022-08-06T09:23:15;1.92;;;0.93;;
47605;SDS011;55448;51.330;4.946;2022-08-06T09:25:42;2.28;;;1.13;;
47605;SDS011;55448;51.330;4.946;2022-08-06T09:28:26;6.03;;;1.20;;
47605;SDS011;55448;51.330;4.946;2022-08-06T09:31:02;3.88;;;1.00;;
47605;SDS011;55448;51.330;4.946;2022-08-06T09:33:30;3.40;;;1.20;;
47605;SDS011;55448;51.330;4.946;2022-08-06T09:35:58;6.00;;;1.17;;
47605;SDS011;55448;51.330;4.946;2022-08-06T09:38:26;4.70;;;1.50;;
47605;SDS011;55448;51.330;4.946;2022-08-06T09:41:05;5.25;;;1.60;;
47605;SDS011;55448;51.330;4.946;2022-08-06T09:43:35;2.60;;;1.10;;
47605;SDS011;55448;51.330;4.946;2022-08-06T09:46:02;2.35;;;1.00;;
47605;SDS011;55448;51.330;4.946;2022-08-06T09:48:28;3.70;;;0.93;;
47605;SDS011;55448;51.330;4.946;2022-08-06T09:50:54;2.95;;;1.15;;
47605;SDS011;55448;51.330;4.946;2022-08-06T09:53:20;2.25;;;0.90;;
47605;SDS011;55448;51.330;4.946;2022-08-06T09:55:49;2.47;;;0.98;;
47605;SDS011;55448;51.330;4.946;2022-08-06T09:58:36;3.78;;;0.90;;
47605;SDS011;55448;51.330;4.946;2022-08-06T10:02:10;3.25;;;1.05;;
47605;SDS011;55448;51.330;4.946;2022-08-06T10:04:03;5.30;;;1.20;;
47605;SDS011;55448;51.330;4.946;2022-08-06T10:06:29;3.22;;;1.10;;
47605;SDS011;55448;51.330;4.946;2022-08-06T10:09:09;4.18;;;0.90;;
47605;SDS011;55448;51.330;4.946;2022-08-06T10:11:37;2.05;;;0.90;;
47605;SDS011;55448;51.330;4.946;2022-08-06T10:14:04;4.80;;;0.90;;
47605;SDS011;55448;51.330;4.946;2022-08-06T10:16:31;2.78;;;1.10;;
47605;SDS011;55448;51.330;4.946;2022-08-06T10:18:57;0.52;;;0.50;;
47605;SDS011;55448;51.330;4.946;2022-08-06T10:21:25;2.25;;;1.00;;
47605;SDS011;55448;51.330;4.946;2022-08-06T10:24:01;4.80;;;1.10;;
47605;SDS011;55448;51.330;4.946;2022-08-06T10:26:29;1.05;;;0.57;;
47605;SDS011;55448;51.330;4.946;2022-08-06T10:29:00;1.15;;;0.85;;
47605;SDS011;55448;51.330;4.946;2022-08-06T10:31:28;1.63;;;0.75;;
47605;SDS011;55448;51.330;4.946;2022-08-06T10:33:59;4.03;;;1.10;;
47605;SDS011;55448;51.330;4.946;2022-08-06T10:36:31;1.40;;;0.93;;
47605;SDS011;55448;51.330;4.946;2022-08-06T10:39:04;2.33;;;0.68;;
47605;SDS011;55448;51.330;4.946;2022-08-06T10:41:31;2.70;;;1.50;;
47605;SDS011;55448;51.330;4.946;2022-08-06T10:44:00;4.60;;;0.98;;
47605;SDS011;55448;51.330;4.946;2022-08-06T10:46:27;1.63;;;0.90;;
47605;SDS011;55448;51.330;4.946;2022-08-06T10:48:53;2.40;;;0.57;;
47605;SDS011;55448;51.330;4.946;2022-08-06T10:51:19;1.90;;;0.90;;
47605;SDS011;55448;51.330;4.946;2022-08-06T10:53:46;7.88;;;1.00;;
47605;SDS011;55448;51.330;4.946;2022-08-06T10:56:13;3.03;;;0.88;;
47605;SDS011;55448;51.330;4.946;2022-08-06T10:58:40;1.08;;;0.57;;
47605;SDS011;55448;51.330;4.946;2022-08-06T11:01:07;6.50;;;1.13;;
47605;SDS011;55448;51.330;4.946;2022-08-06T11:06:17;3.10;;;1.13;;
47605;SDS011;55448;51.330;4.946;2022-08-06T11:14:37;6.20;;;1.10;;
47605;SDS011;55448;51.330;4.946;2022-08-06T11:17:04;3.83;;;1.10;;
47605;SDS011;55448;51.330;4.946;2022-08-06T11:19:42;2.70;;;1.00;;
47605;SDS011;55448;51.330;4.946;2022-08-06T11:25:00;1.40;;;0.80;;
47605;SDS011;55448;51.330;4.946;2022-08-06T11:27:46;2.90;;;1.08;;
47605;SDS011;55448;51.330;4.946;2022-08-06T11:30:14;3.90;;;0.80;;
47605;SDS011;55448;51.330;4.946;2022-08-06T11:32:45;2.05;;;0.98;;
47605;SDS011;55448;51.330;4.946;2022-08-06T11:37:58;2.58;;;0.80;;
47605;SDS011;55448;51.330;4.946;2022-08-06T11:40:25;4.40;;;1.20;;
47605;SDS011;55448;51.330;4.946;2022-08-06T11:42:51;5.43;;;1.08;;
47605;SDS011;55448;51.330;4.946;2022-08-06T11:45:16;2.33;;;0.80;;
47605;SDS011;55448;51.330;4.946;2022-08-06T11:50:31;3.90;;;0.90;;
47605;SDS011;55448;51.330;4.946;2022-08-06T11:52:56;2.45;;;1.02;;
47605;SDS011;55448;51.330;4.946;2022-08-06T11:55:22;1.63;;;0.73;;
47605;SDS011;55448;51.330;4.946;2022-08-06T11:58:33;1.48;;;0.70;;
47605;SDS011;55448;51.330;4.946;2022-08-06T12:01:00;5.97;;;1.10;;
47605;SDS011;55448;51.330;4.946;2022-08-06T12:03:35;2.15;;;0.90;;
47605;SDS011;55448;51.330;4.946;2022-08-06T12:06:21;1.73;;;0.98;;
47605;SDS011;55448;51.330;4.946;2022-08-06T12:09:07;2.25;;;1.10;;
47605;SDS011;55448;51.330;4.946;2022-08-06T12:11:37;2.10;;;0.80;;
47605;SDS011;55448;51.330;4.946;2022-08-06T12:14:03;4.95;;;0.88;;
47605;SDS011;55448;51.330;4.946;2022-08-06T12:19:05;2.03;;;0.95;;
47605;SDS011;55448;51.330;4.946;2022-08-06T12:21:38;6.05;;;1.05;;
47605;SDS011;55448;51.330;4.946;2022-08-06T12:24:05;5.78;;;0.80;;
47605;SDS011;55448;51.330;4.946;2022-08-06T12:26:31;3.58;;;1.20;;
47605;SDS011;55448;51.330;4.946;2022-08-06T12:28:59;3.72;;;0.90;;
47605;SDS011;55448;51.330;4.946;2022-08-06T12:31:31;1.13;;;0.70;;
47605;SDS011;55448;51.330;4.946;2022-08-06T12:33:58;1.95;;;0.80;;
47605;SDS011;55448;51.330;4.946;2022-08-06T12:36:25;1.23;;;0.85;;
47605;SDS011;55448;51.330;4.946;2022-08-06T12:38:54;1.60;;;0.77;;
47605;SDS011;55448;51.330;4.946;2022-08-06T12:41:22;2.00;;;0.73;;
47605;SDS011;55448;51.330;4.946;2022-08-06T12:43:47;0.73;;;0.55;;
47605;SDS011;55448;51.330;4.946;2022-08-06T12:46:13;2.90;;;0.90;;
47605;SDS011;55448;51.330;4.946;2022-08-06T12:48:44;1.98;;;0.80;;
47605;SDS011;55448;51.330;4.946;2022-08-06T12:51:14;1.85;;;0.80;;
47605;SDS011;55448;51.330;4.946;2022-08-06T12:53:41;2.35;;;0.82;;
47605;SDS011;55448;51.330;4.946;2022-08-06T12:56:13;2.83;;;0.73;;
47605;SDS011;55448;51.330;4.946;2022-08-06T12:58:40;1.05;;;0.73;;
47605;SDS011;55448;51.330;4.946;2022-08-06T13:01:07;1.48;;;0.90;;
47605;SDS011;55448;51.330;4.946;2022-08-06T13:03:37;4.05;;;0.85;;
47605;SDS011;55448;51.330;4.946;2022-08-06T13:06:07;2.47;;;0.60;;
47605;SDS011;55448;51.330;4.946;2022-08-06T13:08:36;3.15;;;0.90;;
47605;SDS011;55448;51.330;4.946;2022-08-06T13:11:02;5.05;;;0.82;;
47605;SDS011;55448;51.330;4.946;2022-08-06T13:13:49;2.35;;;0.68;;
47605;SDS011;55448;51.330;4.946;2022-08-06T13:16:17;2.70;;;0.88;;
47605;SDS011;55448;51.330;4.946;2022-08-06T13:19:02;3.95;;;1.00;;
47605;SDS011;55448;51.330;4.946;2022-08-06T13:21:32;5.28;;;0.65;;
47605;SDS011;55448;51.330;4.946;2022-08-06T13:24:01;2.15;;;0.82;;
47605;SDS011;55448;51.330;4.946;2022-08-06T13:26:28;2.13;;;0.90;;
47605;SDS011;55448;51.330;4.946;2022-08-06T13:29:02;2.47;;;0.98;;
47605;SDS011;55448;51.330;4.946;2022-08-06T13:31:34;4.05;;;0.77;;
47605;SDS011;55448;51.330;4.946;2022-08-06T13:34:05;6.15;;;0.85;;
47605;SDS011;55448;51.330;4.946;2022-08-06T13:36:34;2.05;;;0.90;;
47605;SDS011;55448;51.330;4.946;2022-08-06T13:41:58;1.67;;;0.73;;
47605;SDS011;55448;51.330;4.946;2022-08-06T13:44:36;1.48;;;0.63;;
47605;SDS011;55448;51.330;4.946;2022-08-06T13:47:10;1.85;;;0.80;;
47605;SDS011;55448;51.330;4.946;2022-08-06T13:49:41;1.00;;;0.73;;
47605;SDS011;55448;51.330;4.946;2022-08-06T13:52:08;0.82;;;0.52;;
47605;SDS011;55448;51.330;4.946;2022-08-06T13:54:34;1.55;;;0.80;;
47605;SDS011;55448;51.330;4.946;2022-08-06T13:57:00;4.05;;;0.90;;
47605;SDS011;55448;51.330;4.946;2022-08-06T13:59:27;4.82;;;0.98;;
47605;SDS011;55448;51.330;4.946;2022-08-06T14:01:58;2.38;;;0.80;;
47605;SDS011;55448;51.330;4.946;2022-08-06T14:04:28;1.17;;;0.80;;
47605;SDS011;55448;51.330;4.946;2022-08-06T14:06:56;2.90;;;1.15;;
47605;SDS011;55448;51.330;4.946;2022-08-06T14:09:25;4.13;;;1.23;;
47605;SDS011;55448;51.330;4.946;2022-08-06T14:11:58;0.98;;;0.65;;
47605;SDS011;55448;51.330;4.946;2022-08-06T14:14:25;2.15;;;0.88;;
47605;SDS011;55448;51.330;4.946;2022-08-06T14:16:54;4.57;;;1.15;;
47605;SDS011;55448;51.330;4.946;2022-08-06T14:19:21;3.22;;;0.85;;
47605;SDS011;55448;51.330;4.946;2022-08-06T14:21:47;1.38;;;0.80;;
47605;SDS011;55448;51.330;4.946;2022-08-06T14:24:12;3.00;;;1.05;;
47605;SDS011;55448;51.330;4.946;2022-08-06T14:26:38;1.73;;;1.08;;
47605;SDS011;55448;51.330;4.946;2022-08-06T14:29:04;3.13;;;1.13;;
47605;SDS011;55448;51.330;4.946;2022-08-06T14:31:30;3.03;;;1.05;;
47605;SDS011;55448;51.330;4.946;2022-08-06T14:33:59;2.00;;;0.93;;
47605;SDS011;55448;51.330;4.946;2022-08-06T14:36:26;2.35;;;0.90;;
47605;SDS011;55448;51.330;4.946;2022-08-06T14:38:53;3.42;;;1.08;;
47605;SDS011;55448;51.330;4.946;2022-08-06T14:41:19;1.20;;;0.60;;
47605;SDS011;55448;51.330;4.946;2022-08-06T14:44:04;2.15;;;0.85;;
47605;SDS011;55448;51.330;4.946;2022-08-06T14:46:48;2.50;;;0.98;;
47605;SDS011;55448;51.330;4.946;2022-08-06T14:49:13;3.05;;;0.95;;
47605;SDS011;55448;51.330;4.946;2022-08-06T14:51:39;2.10;;;0.88;;
47605;SDS011;55448;51.330;4.946;2022-08-06T14:54:05;0.98;;;0.77;;
47605;SDS011;55448;51.330;4.946;2022-08-06T14:56:31;3.72;;;1.10;;
47605;SDS011;55448;51.330;4.946;2022-08-06T14:58:57;2.97;;;0.75;;
47605;SDS011;55448;51.330;4.946;2022-08-06T15:01:22;4.53;;;1.25;;
47605;SDS011;55448;51.330;4.946;2022-08-06T15:03:48;2.83;;;1.10;;
47605;SDS011;55448;51.330;4.946;2022-08-06T15:06:14;2.08;;;0.70;;
47605;SDS011;55448;51.330;4.946;2022-08-06T15:08:40;4.22;;;0.98;;
47605;SDS011;55448;51.330;4.946;2022-08-06T15:11:05;4.03;;;0.85;;
47605;SDS011;55448;51.330;4.946;2022-08-06T15:13:31;3.22;;;0.70;;
47605;SDS011;55448;51.330;4.946;2022-08-06T15:15:57;3.33;;;1.10;;
47605;SDS011;55448;51.330;4.946;2022-08-06T15:18:23;3.72;;;0.75;;
47605;SDS011;55448;51.330;4.946;2022-08-06T15:20:49;2.05;;;0.80;;
47605;SDS011;55448;51.330;4.946;2022-08-06T15:23:14;3.58;;;0.68;;
47605;SDS011;55448;51.330;4.946;2022-08-06T15:25:41;2.60;;;0.77;;
47605;SDS011;55448;51.330;4.946;2022-08-06T15:28:07;2.45;;;0.68;;
47605;SDS011;55448;51.330;4.946;2022-08-06T15:30:32;0.93;;;0.50;;
47605;SDS011;55448;51.330;4.946;2022-08-06T15:32:58;1.63;;;0.55;;
47605;SDS011;55448;51.330;4.946;2022-08-06T15:35:25;3.00;;;0.70;;
47605;SDS011;55448;51.330;4.946;2022-08-06T15:37:51;2.63;;;0.90;;
47605;SDS011;55448;51.330;4.946;2022-08-06T15:40:18;1.98;;;0.70;;
47605;SDS011;55448;51.330;4.946;2022-08-06T15:42:44;2.20;;;1.10;;
47605;SDS011;55448;51.330;4.946;2022-08-06T15:45:10;2.92;;;0.80;;
47605;SDS011;55448;51.330;4.946;2022-08-06T15:47:38;2.65;;;0.75;;
47605;SDS011;55448;51.330;4.946;2022-08-06T15:50:04;4.28;;;0.90;;
47605;SDS011;55448;51.330;4.946;2022-08-06T15:52:31;2.13;;;0.90;;
47605;SDS011;55448;51.330;4.946;2022-08-06T15:54:57;1.75;;;0.90;;
47605;SDS011;55448;51.330;4.946;2022-08-06T15:57:23;1.45;;;0.68;;
47605;SDS011;55448;51.330;4.946;2022-08-06T15:59:48;2.22;;;0.95;;
47605;SDS011;55448;51.330;4.946;2022-08-06T16:02:15;3.63;;;1.10;;